Detall de PIREP

Printer-friendly versionPDF version

[2015/12/21 11:20:00]
Flight IATA:CT1004
Pilot Number:016
Company ICAO:CAT
Aircraft Type:B763/F
PAX:208
Departing Airport: LEZL
Destination Airport: LEBL
Alternate Airport:LEZL
Online: VATSIM
Route:BUDIT UM445 BEGOX UN860 VLC UM985 SOPET UN608 MATEX
Flight Level:F340
No Slew and time accel
No pause
Crash detect
Detect pilot in Cockpit between each 30 and 45 minutes
11:20 Zero fuel Weight: 244951 Lbs, Fuel Weight: 54105 Lbs
11:20 VATSIM:LEZL 211800Z 05001KT CAVOK 15/09 Q1030 NOSIG
11:20 VATSIM:LEBL 211800Z 30008KT 250V340 9000 NSC 13/08 Q1033 NOSIG
11:20 Parking Brakes off
11:26 Take-off
11:26 Take off Weight: 297547 Lbs
11:26 Wind: 010º @ 000 Knots Heading: 089º
11:26 POS N37º 25´ 04´´ W005º 53´ 34´´
11:26 Gear Up: 165 Knots
11:26 Flaps:2 at 165 Knots
11:27 Flaps:1 at 215 Knots
11:28 Flaps:0 at 233 Knots
11:36 TOC
11:36 Fuel Weight: 47141 Lb
11:41 Wind:000º@000 Knots Heading: 085º Ground Speed: 480 Knots Altitude 34317 ft
11:56 Wind:000º@000 Knots Heading: 052º Ground Speed: 480 Knots Altitude 34314 ft
12:11 Wind:000º@000 Knots Heading: 015º Ground Speed: 452 Knots Altitude 34324 ft
12:12 TOD
12:12 Fuel Weight: 40784 Lb
12:26 Wind:000º@000 Knots Heading: 055º Ground Speed: 321 Knots Altitude 11007 ft
12:31 Flaps:1 at 248 Knots
12:33 Flaps:2 at 223 Knots
12:33 Flaps:3 at 212 Knots
12:34 Flaps:4 at 190 Knots
12:37 Flaps:5 at 160 Knots
12:38 Gear Down: 164 Knots
12:39 Flaps:6 at 152 Knots
12:39 TouchDown:Rate -186 ft/min Speed: 141 Knots
12:39 VATSIM:LEBL 211930Z 31006KT 280V350 9000 NSC 13/08 Q1034 NOSIG
12:39 Land
12:39 Wind:242º@004 Knots
12:39 Heading: 246º
12:39 Flight Duration: 01:13
12:39 Landing Weight: 283161 Lbs
12:39 POS N41º 17´ 56´´ E002º 05´ 03´´
12:41 Parking brakes on
12:41 Block to Block Duration: 01:21
12:41 Final Fuel: 37925 Lbls
12:41 Spent Fuel: 16179 Lbls
12:41 Flight Length: 489 NM
12:41 TOD Land Length: 141 NM

Exportar CSV

Powered by Drupal - Modified by Danger4k